sensor_id;sensor_type;location;lat;lon;timestamp;temperature;humidity
35678;DHT22;21791;42.828;74.582;2023-02-18T00:01:24;0.30;99.90
35678;DHT22;21791;42.828;74.582;2023-02-18T00:03:51;0.70;99.90
35678;DHT22;21791;42.828;74.582;2023-02-18T00:06:21;1.00;99.90
35678;DHT22;21791;42.828;74.582;2023-02-18T00:08:49;0.70;99.90
35678;DHT22;21791;42.828;74.582;2023-02-18T00:11:17;1.30;99.90
35678;DHT22;21791;42.828;74.582;2023-02-18T00:13:53;1.30;99.90
35678;DHT22;21791;42.828;74.582;2023-02-18T00:16:20;0.00;99.90
35678;DHT22;21791;42.828;74.582;2023-02-18T00:18:48;0.10;99.90
35678;DHT22;21791;42.828;74.582;2023-02-18T00:21:15;0.10;99.90
35678;DHT22;21791;42.828;74.582;2023-02-18T00:23:42;0.20;99.90
35678;DHT22;21791;42.828;74.582;2023-02-18T00:26:12;1.20;99.90
35678;DHT22;21791;42.828;74.582;2023-02-18T00:28:39;0.60;99.90
35678;DHT22;21791;42.828;74.582;2023-02-18T00:31:10;0.20;99.90
35678;DHT22;21791;42.828;74.582;2023-02-18T00:33:37;0.00;99.90
35678;DHT22;21791;42.828;74.582;2023-02-18T00:36:05;0.30;99.90
35678;DHT22;21791;42.828;74.582;2023-02-18T00:38:33;1.30;99.90
35678;DHT22;21791;42.828;74.582;2023-02-18T00:41:00;0.90;99.90
35678;DHT22;21791;42.828;74.582;2023-02-18T00:43:27;1.30;99.90
35678;DHT22;21791;42.828;74.582;2023-02-18T00:45:54;1.10;99.90
35678;DHT22;21791;42.828;74.582;2023-02-18T00:48:20;0.40;99.90
35678;DHT22;21791;42.828;74.582;2023-02-18T00:50:47;0.40;99.90
35678;DHT22;21791;42.828;74.582;2023-02-18T00:53:13;0.00;99.90
35678;DHT22;21791;42.828;74.582;2023-02-18T00:55:43;1.10;99.90
35678;DHT22;21791;42.828;74.582;2023-02-18T00:58:11;0.40;99.90
35678;DHT22;21791;42.828;74.582;2023-02-18T01:00:37;1.10;99.90
35678;DHT22;21791;42.828;74.582;2023-02-18T01:03:04;1.30;99.90
35678;DHT22;21791;42.828;74.582;2023-02-18T01:05:33;1.30;99.90
35678;DHT22;21791;42.828;74.582;2023-02-18T01:07:59;0.90;99.90
35678;DHT22;21791;42.828;74.582;2023-02-18T01:10:25;-0.10;99.90
35678;DHT22;21791;42.828;74.582;2023-02-18T01:12:52;1.10;99.90
35678;DHT22;21791;42.828;74.582;2023-02-18T01:15:18;1.30;99.90
35678;DHT22;21791;42.828;74.582;2023-02-18T01:17:45;1.00;99.90
35678;DHT22;21791;42.828;74.582;2023-02-18T01:20:13;-0.10;99.90
35678;DHT22;21791;42.828;74.582;2023-02-18T01:22:40;-0.10;99.90
35678;DHT22;21791;42.828;74.582;2023-02-18T01:25:10;0.10;99.90
35678;DHT22;21791;42.828;74.582;2023-02-18T01:27:37;0.10;99.90
35678;DHT22;21791;42.828;74.582;2023-02-18T01:30:05;0.40;99.90
35678;DHT22;21791;42.828;74.582;2023-02-18T01:32:32;0.40;99.90
35678;DHT22;21791;42.828;74.582;2023-02-18T01:35:04;0.70;99.90
35678;DHT22;21791;42.828;74.582;2023-02-18T01:37:31;1.30;99.90
35678;DHT22;21791;42.828;74.582;2023-02-18T01:39:58;0.00;99.90
35678;DHT22;21791;42.828;74.582;2023-02-18T01:42:27;1.30;99.90
35678;DHT22;21791;42.828;74.582;2023-02-18T01:45:23;0.70;99.90
35678;DHT22;21791;42.828;74.582;2023-02-18T01:47:41;0.90;99.90
35678;DHT22;21791;42.828;74.582;2023-02-18T01:50:08;0.20;99.90
35678;DHT22;21791;42.828;74.582;2023-02-18T01:52:34;0.50;99.90
35678;DHT22;21791;42.828;74.582;2023-02-18T01:55:01;0.20;99.90
35678;DHT22;21791;42.828;74.582;2023-02-18T01:57:31;0.50;99.90
35678;DHT22;21791;42.828;74.582;2023-02-18T02:00:07;0.80;99.90
35678;DHT22;21791;42.828;74.582;2023-02-18T02:02:39;0.30;99.90
35678;DHT22;21791;42.828;74.582;2023-02-18T02:05:11;0.70;99.90
35678;DHT22;21791;42.828;74.582;2023-02-18T02:07:40;0.10;99.90
35678;DHT22;21791;42.828;74.582;2023-02-18T02:10:07;0.20;99.90
35678;DHT22;21791;42.828;74.582;2023-02-18T02:24:01;0.00;99.90
35678;DHT22;21791;42.828;74.582;2023-02-18T02:29:49;1.10;99.90
35678;DHT22;21791;42.828;74.582;2023-02-18T02:38:52;-0.10;99.90
35678;DHT22;21791;42.828;74.582;2023-02-18T02:47:29;0.00;99.90
35678;DHT22;21791;42.828;74.582;2023-02-18T02:50:05;0.10;99.90
35678;DHT22;21791;42.828;74.582;2023-02-18T02:52:38;1.20;99.90
35678;DHT22;21791;42.828;74.582;2023-02-18T02:55:08;0.50;99.90
35678;DHT22;21791;42.828;74.582;2023-02-18T02:57:52;1.40;99.90
35678;DHT22;21791;42.828;74.582;2023-02-18T03:03:37;0.70;99.90
35678;DHT22;21791;42.828;74.582;2023-02-18T03:11:53;0.30;99.90
35678;DHT22;21791;42.828;74.582;2023-02-18T03:14:28;1.20;99.90
35678;DHT22;21791;42.828;74.582;2023-02-18T03:17:10;0.40;99.90
35678;DHT22;21791;42.828;74.582;2023-02-18T03:19:44;1.30;99.90
35678;DHT22;21791;42.828;74.582;2023-02-18T03:22:19;0.90;99.90
35678;DHT22;21791;42.828;74.582;2023-02-18T03:24:50;1.60;99.90
35678;DHT22;21791;42.828;74.582;2023-02-18T03:27:42;1.80;99.90
35678;DHT22;21791;42.828;74.582;2023-02-18T03:30:16;1.90;99.90
35678;DHT22;21791;42.828;74.582;2023-02-18T03:32:46;0.50;99.90
35678;DHT22;21791;42.828;74.582;2023-02-18T03:35:16;0.90;99.90
35678;DHT22;21791;42.828;74.582;2023-02-18T03:38:01;0.80;99.90
35678;DHT22;21791;42.828;74.582;2023-02-18T03:40:30;0.60;99.90
35678;DHT22;21791;42.828;74.582;2023-02-18T03:42:58;0.70;99.90
35678;DHT22;21791;42.828;74.582;2023-02-18T03:45:25;0.90;99.90
35678;DHT22;21791;42.828;74.582;2023-02-18T03:47:52;1.10;99.90
35678;DHT22;21791;42.828;74.582;2023-02-18T03:50:19;1.20;99.90
35678;DHT22;21791;42.828;74.582;2023-02-18T03:52:45;1.00;99.90
35678;DHT22;21791;42.828;74.582;2023-02-18T03:55:12;1.90;99.90
35678;DHT22;21791;42.828;74.582;2023-02-18T03:57:38;0.80;99.90
35678;DHT22;21791;42.828;74.582;2023-02-18T04:00:05;1.10;99.90
35678;DHT22;21791;42.828;74.582;2023-02-18T04:02:32;2.10;99.90
35678;DHT22;21791;42.828;74.582;2023-02-18T04:04:59;0.90;99.90
35678;DHT22;21791;42.828;74.582;2023-02-18T04:07:25;1.00;99.90
35678;DHT22;21791;42.828;74.582;2023-02-18T04:09:52;1.80;99.90
35678;DHT22;21791;42.828;74.582;2023-02-18T04:12:18;1.20;99.90
35678;DHT22;21791;42.828;74.582;2023-02-18T04:14:45;2.30;99.90
35678;DHT22;21791;42.828;74.582;2023-02-18T04:17:11;2.00;99.90
35678;DHT22;21791;42.828;74.582;2023-02-18T04:19:38;2.10;99.90
35678;DHT22;21791;42.828;74.582;2023-02-18T04:22:04;1.30;99.90
35678;DHT22;21791;42.828;74.582;2023-02-18T04:24:30;2.00;99.90
35678;DHT22;21791;42.828;74.582;2023-02-18T04:26:57;2.20;99.90
35678;DHT22;21791;42.828;74.582;2023-02-18T04:29:23;1.10;99.90
35678;DHT22;21791;42.828;74.582;2023-02-18T04:31:50;1.20;99.90
35678;DHT22;21791;42.828;74.582;2023-02-18T04:34:16;1.50;99.90
35678;DHT22;21791;42.828;74.582;2023-02-18T04:36:42;1.70;99.90
35678;DHT22;21791;42.828;74.582;2023-02-18T04:39:09;2.00;99.90
35678;DHT22;21791;42.828;74.582;2023-02-18T04:41:36;1.30;99.90
35678;DHT22;21791;42.828;74.582;2023-02-18T04:44:03;1.90;99.90
35678;DHT22;21791;42.828;74.582;2023-02-18T04:46:30;1.40;99.90
35678;DHT22;21791;42.828;74.582;2023-02-18T04:48:56;2.20;99.90
35678;DHT22;21791;42.828;74.582;2023-02-18T04:51:23;1.50;99.90
35678;DHT22;21791;42.828;74.582;2023-02-18T04:53:49;1.50;99.90
35678;DHT22;21791;42.828;74.582;2023-02-18T04:56:16;1.40;99.90
35678;DHT22;21791;42.828;74.582;2023-02-18T04:58:42;1.40;99.90
35678;DHT22;21791;42.828;74.582;2023-02-18T05:01:09;1.80;99.90
35678;DHT22;21791;42.828;74.582;2023-02-18T05:03:36;2.10;99.90
35678;DHT22;21791;42.828;74.582;2023-02-18T05:06:02;1.60;99.90
35678;DHT22;21791;42.828;74.582;2023-02-18T05:08:29;1.50;99.90
35678;DHT22;21791;42.828;74.582;2023-02-18T05:10:56;1.80;99.90
35678;DHT22;21791;42.828;74.582;2023-02-18T05:13:22;1.20;99.90
35678;DHT22;21791;42.828;74.582;2023-02-18T05:15:49;2.00;99.90
35678;DHT22;21791;42.828;74.582;2023-02-18T05:18:16;1.30;99.90
35678;DHT22;21791;42.828;74.582;2023-02-18T05:20:43;1.80;99.90
35678;DHT22;21791;42.828;74.582;2023-02-18T05:23:09;2.30;99.90
35678;DHT22;21791;42.828;74.582;2023-02-18T05:25:36;1.90;99.90
35678;DHT22;21791;42.828;74.582;2023-02-18T05:28:02;2.50;99.90
35678;DHT22;21791;42.828;74.582;2023-02-18T05:30:29;2.60;99.90
35678;DHT22;21791;42.828;74.582;2023-02-18T05:32:55;2.40;99.90
35678;DHT22;21791;42.828;74.582;2023-02-18T05:35:22;2.00;99.90
35678;DHT22;21791;42.828;74.582;2023-02-18T05:37:49;2.50;99.90
35678;DHT22;21791;42.828;74.582;2023-02-18T05:40:15;2.30;99.90
35678;DHT22;21791;42.828;74.582;2023-02-18T05:42:42;2.20;99.90
35678;DHT22;21791;42.828;74.582;2023-02-18T05:45:09;2.20;99.90
35678;DHT22;21791;42.828;74.582;2023-02-18T05:47:36;1.90;99.90
35678;DHT22;21791;42.828;74.582;2023-02-18T05:50:04;2.10;99.90
35678;DHT22;21791;42.828;74.582;2023-02-18T05:52:31;2.10;99.90
35678;DHT22;21791;42.828;74.582;2023-02-18T05:54:59;2.60;99.90
35678;DHT22;21791;42.828;74.582;2023-02-18T05:57:25;2.40;99.90
35678;DHT22;21791;42.828;74.582;2023-02-18T05:59:51;2.60;99.90
35678;DHT22;21791;42.828;74.582;2023-02-18T06:02:18;2.70;99.90
35678;DHT22;21791;42.828;74.582;2023-02-18T06:04:44;2.40;99.90
35678;DHT22;21791;42.828;74.582;2023-02-18T06:07:10;2.50;99.90
35678;DHT22;21791;42.828;74.582;2023-02-18T06:09:37;2.70;99.90
35678;DHT22;21791;42.828;74.582;2023-02-18T06:12:03;2.40;99.90
35678;DHT22;21791;42.828;74.582;2023-02-18T06:14:30;2.50;99.90
35678;DHT22;21791;42.828;74.582;2023-02-18T06:16:57;2.60;99.90
35678;DHT22;21791;42.828;74.582;2023-02-18T06:19:23;2.70;99.90
35678;DHT22;21791;42.828;74.582;2023-02-18T06:21:50;2.80;99.90
35678;DHT22;21791;42.828;74.582;2023-02-18T06:24:16;2.80;99.90
35678;DHT22;21791;42.828;74.582;2023-02-18T06:26:43;2.80;99.90
35678;DHT22;21791;42.828;74.582;2023-02-18T06:29:09;2.50;99.90
35678;DHT22;21791;42.828;74.582;2023-02-18T06:31:35;2.60;99.90
35678;DHT22;21791;42.828;74.582;2023-02-18T06:34:02;2.60;99.90
35678;DHT22;21791;42.828;74.582;2023-02-18T06:36:28;2.60;99.90
35678;DHT22;21791;42.828;74.582;2023-02-18T06:38:55;2.70;99.90
35678;DHT22;21791;42.828;74.582;2023-02-18T06:41:22;2.90;99.90
35678;DHT22;21791;42.828;74.582;2023-02-18T06:43:49;3.10;99.90
35678;DHT22;21791;42.828;74.582;2023-02-18T06:46:16;2.90;99.90
35678;DHT22;21791;42.828;74.582;2023-02-18T06:48:43;2.90;99.90
35678;DHT22;21791;42.828;74.582;2023-02-18T06:51:09;3.00;99.90
35678;DHT22;21791;42.828;74.582;2023-02-18T06:53:36;3.10;99.90
35678;DHT22;21791;42.828;74.582;2023-02-18T06:56:03;3.00;99.90
35678;DHT22;21791;42.828;74.582;2023-02-18T06:58:30;3.00;99.90
35678;DHT22;21791;42.828;74.582;2023-02-18T07:00:56;3.10;99.90
35678;DHT22;21791;42.828;74.582;2023-02-18T07:03:23;3.30;99.90
35678;DHT22;21791;42.828;74.582;2023-02-18T07:05:50;3.00;99.90
35678;DHT22;21791;42.828;74.582;2023-02-18T07:08:17;3.00;99.90
35678;DHT22;21791;42.828;74.582;2023-02-18T07:10:44;2.90;99.90
35678;DHT22;21791;42.828;74.582;2023-02-18T07:13:10;3.00;99.90
35678;DHT22;21791;42.828;74.582;2023-02-18T07:15:37;3.10;99.90
35678;DHT22;21791;42.828;74.582;2023-02-18T07:18:04;3.20;99.90
35678;DHT22;21791;42.828;74.582;2023-02-18T07:20:30;3.40;99.90
35678;DHT22;21791;42.828;74.582;2023-02-18T07:22:57;3.30;99.90
35678;DHT22;21791;42.828;74.582;2023-02-18T07:25:24;3.30;99.90
35678;DHT22;21791;42.828;74.582;2023-02-18T07:27:51;3.30;99.90
35678;DHT22;21791;42.828;74.582;2023-02-18T07:30:19;3.30;99.90
35678;DHT22;21791;42.828;74.582;2023-02-18T07:32:45;3.30;99.90
35678;DHT22;21791;42.828;74.582;2023-02-18T07:35:13;3.40;99.90
35678;DHT22;21791;42.828;74.582;2023-02-18T07:37:44;3.30;99.90
35678;DHT22;21791;42.828;74.582;2023-02-18T07:40:16;3.20;99.90
35678;DHT22;21791;42.828;74.582;2023-02-18T07:42:43;3.10;99.90
35678;DHT22;21791;42.828;74.582;2023-02-18T07:45:10;3.00;99.90
35678;DHT22;21791;42.828;74.582;2023-02-18T07:47:37;2.90;99.90
35678;DHT22;21791;42.828;74.582;2023-02-18T07:50:05;2.80;99.90
35678;DHT22;21791;42.828;74.582;2023-02-18T07:52:32;2.90;99.90
35678;DHT22;21791;42.828;74.582;2023-02-18T07:54:58;3.00;99.90
35678;DHT22;21791;42.828;74.582;2023-02-18T07:57:25;2.90;99.90
35678;DHT22;21791;42.828;74.582;2023-02-18T07:59:51;2.80;99.90
35678;DHT22;21791;42.828;74.582;2023-02-18T08:02:20;3.00;99.90
35678;DHT22;21791;42.828;74.582;2023-02-18T08:04:48;3.10;99.90
35678;DHT22;21791;42.828;74.582;2023-02-18T08:07:15;2.90;99.90
35678;DHT22;21791;42.828;74.582;2023-02-18T08:09:42;2.80;99.90
35678;DHT22;21791;42.828;74.582;2023-02-18T08:12:09;2.80;99.90
35678;DHT22;21791;42.828;74.582;2023-02-18T08:14:35;2.50;99.90
35678;DHT22;21791;42.828;74.582;2023-02-18T08:17:02;2.30;99.90
35678;DHT22;21791;42.828;74.582;2023-02-18T08:19:28;2.50;99.90
35678;DHT22;21791;42.828;74.582;2023-02-18T08:21:55;2.50;99.90
35678;DHT22;21791;42.828;74.582;2023-02-18T08:24:21;2.20;99.90
35678;DHT22;21791;42.828;74.582;2023-02-18T08:26:48;2.50;99.90
35678;DHT22;21791;42.828;74.582;2023-02-18T08:29:14;2.50;99.90
35678;DHT22;21791;42.828;74.582;2023-02-18T08:31:41;2.20;99.90
35678;DHT22;21791;42.828;74.582;2023-02-18T08:34:08;2.40;99.90
35678;DHT22;21791;42.828;74.582;2023-02-18T08:36:35;1.90;99.90
35678;DHT22;21791;42.828;74.582;2023-02-18T08:39:02;2.40;99.90
35678;DHT22;21791;42.828;74.582;2023-02-18T08:41:28;2.20;99.90
35678;DHT22;21791;42.828;74.582;2023-02-18T08:43:55;2.30;99.90
35678;DHT22;21791;42.828;74.582;2023-02-18T08:46:22;1.80;99.90
35678;DHT22;21791;42.828;74.582;2023-02-18T08:48:48;1.80;99.90
35678;DHT22;21791;42.828;74.582;2023-02-18T08:51:18;1.80;99.90
35678;DHT22;21791;42.828;74.582;2023-02-18T08:53:45;2.30;99.90
35678;DHT22;21791;42.828;74.582;2023-02-18T08:56:13;2.30;99.90
35678;DHT22;21791;42.828;74.582;2023-02-18T08:58:41;2.20;99.90
35678;DHT22;21791;42.828;74.582;2023-02-18T09:01:09;2.30;99.90
35678;DHT22;21791;42.828;74.582;2023-02-18T09:03:36;2.20;99.90
35678;DHT22;21791;42.828;74.582;2023-02-18T09:06:03;2.30;99.90
35678;DHT22;21791;42.828;74.582;2023-02-18T09:08:33;2.40;99.90
35678;DHT22;21791;42.828;74.582;2023-02-18T09:11:02;2.20;99.90
35678;DHT22;21791;42.828;74.582;2023-02-18T09:13:30;2.10;99.90
35678;DHT22;21791;42.828;74.582;2023-02-18T09:16:02;1.80;99.90
35678;DHT22;21791;42.828;74.582;2023-02-18T09:18:30;1.80;99.90
35678;DHT22;21791;42.828;74.582;2023-02-18T09:20:58;2.30;99.90
35678;DHT22;21791;42.828;74.582;2023-02-18T09:23:26;2.00;99.90
35678;DHT22;21791;42.828;74.582;2023-02-18T09:25:54;2.00;99.90
35678;DHT22;21791;42.828;74.582;2023-02-18T09:28:20;2.00;99.90
35678;DHT22;21791;42.828;74.582;2023-02-18T09:30:47;2.10;99.90
35678;DHT22;21791;42.828;74.582;2023-02-18T09:33:13;1.50;99.90
35678;DHT22;21791;42.828;74.582;2023-02-18T09:35:41;1.90;99.90
35678;DHT22;21791;42.828;74.582;2023-02-18T09:38:10;1.70;99.90
35678;DHT22;21791;42.828;74.582;2023-02-18T09:40:41;2.20;99.90
35678;DHT22;21791;42.828;74.582;2023-02-18T09:43:28;1.60;99.90
35678;DHT22;21791;42.828;74.582;2023-02-18T09:45:55;1.80;99.90
35678;DHT22;21791;42.828;74.582;2023-02-18T09:48:29;1.80;99.90
35678;DHT22;21791;42.828;74.582;2023-02-18T09:50:57;1.90;99.90
35678;DHT22;21791;42.828;74.582;2023-02-18T09:53:24;1.40;99.90
35678;DHT22;21791;42.828;74.582;2023-02-18T09:55:54;2.10;99.90
35678;DHT22;21791;42.828;74.582;2023-02-18T09:58:29;1.30;99.90
35678;DHT22;21791;42.828;74.582;2023-02-18T10:01:06;1.90;99.90
35678;DHT22;21791;42.828;74.582;2023-02-18T10:03:36;1.20;99.90
35678;DHT22;21791;42.828;74.582;2023-02-18T10:06:09;1.70;99.90
35678;DHT22;21791;42.828;74.582;2023-02-18T10:08:39;1.90;99.90
35678;DHT22;21791;42.828;74.582;2023-02-18T10:11:14;2.00;99.90
35678;DHT22;21791;42.828;74.582;2023-02-18T10:13:42;1.60;99.90
35678;DHT22;21791;42.828;74.582;2023-02-18T10:16:16;1.90;99.90
35678;DHT22;21791;42.828;74.582;2023-02-18T10:18:48;1.70;99.90
35678;DHT22;21791;42.828;74.582;2023-02-18T10:21:21;2.10;99.90
35678;DHT22;21791;42.828;74.582;2023-02-18T10:24:00;1.80;99.90
35678;DHT22;21791;42.828;74.582;2023-02-18T10:26:29;1.90;99.90
35678;DHT22;21791;42.828;74.582;2023-02-18T10:28:57;1.80;99.90
35678;DHT22;21791;42.828;74.582;2023-02-18T10:31:54;0.90;99.90
35678;DHT22;21791;42.828;74.582;2023-02-18T10:37:45;1.60;99.90
35678;DHT22;21791;42.828;74.582;2023-02-18T10:40:32;1.20;99.90
35678;DHT22;21791;42.828;74.582;2023-02-18T10:46:21;1.90;99.90
35678;DHT22;21791;42.828;74.582;2023-02-18T10:51:51;0.90;99.90
35678;DHT22;21791;42.828;74.582;2023-02-18T10:54:24;1.90;99.90
35678;DHT22;21791;42.828;74.582;2023-02-18T10:56:54;1.00;99.90
35678;DHT22;21791;42.828;74.582;2023-02-18T10:59:31;0.90;99.90
35678;DHT22;21791;42.828;74.582;2023-02-18T11:02:01;1.90;99.90
35678;DHT22;21791;42.828;74.582;2023-02-18T11:04:37;0.90;99.90
35678;DHT22;21791;42.828;74.582;2023-02-18T11:07:13;1.90;99.90
35678;DHT22;21791;42.828;74.582;2023-02-18T11:09:45;0.80;99.90
35678;DHT22;21791;42.828;74.582;2023-02-18T11:12:22;1.70;99.90
35678;DHT22;21791;42.828;74.582;2023-02-18T11:15:17;1.10;99.90
35678;DHT22;21791;42.828;74.582;2023-02-18T11:17:48;1.40;99.90
35678;DHT22;21791;42.828;74.582;2023-02-18T11:20:29;0.80;99.90
35678;DHT22;21791;42.828;74.582;2023-02-18T11:25:37;1.80;99.90
35678;DHT22;21791;42.828;74.582;2023-02-18T11:30:59;1.90;99.90
35678;DHT22;21791;42.828;74.582;2023-02-18T11:33:43;0.80;99.90
35678;DHT22;21791;42.828;74.582;2023-02-18T11:36:23;0.90;99.90
35678;DHT22;21791;42.828;74.582;2023-02-18T11:39:19;1.10;99.90
35678;DHT22;21791;42.828;74.582;2023-02-18T11:42:03;1.30;99.90
35678;DHT22;21791;42.828;74.582;2023-02-18T11:49:43;1.30;99.90
35678;DHT22;21791;42.828;74.582;2023-02-18T11:52:28;1.80;99.90
35678;DHT22;21791;42.828;74.582;2023-02-18T11:55:07;1.80;99.90
35678;DHT22;21791;42.828;74.582;2023-02-18T11:57:40;0.70;99.90
35678;DHT22;21791;42.828;74.582;2023-02-18T12:00:23;0.70;99.90
35678;DHT22;21791;42.828;74.582;2023-02-18T12:02:52;1.30;99.90
35678;DHT22;21791;42.828;74.582;2023-02-18T12:05:23;1.80;99.90
35678;DHT22;21791;42.828;74.582;2023-02-18T12:08:13;1.20;99.90
35678;DHT22;21791;42.828;74.582;2023-02-18T12:10:49;1.50;99.90
35678;DHT22;21791;42.828;74.582;2023-02-18T12:13:32;1.30;99.90
35678;DHT22;21791;42.828;74.582;2023-02-18T12:22:15;1.30;99.90
35678;DHT22;21791;42.828;74.582;2023-02-18T12:27:35;0.80;99.90
35678;DHT22;21791;42.828;74.582;2023-02-18T12:33:13;1.40;99.90
35678;DHT22;21791;42.828;74.582;2023-02-18T12:44:23;1.80;99.90
35678;DHT22;21791;42.828;74.582;2023-02-18T12:47:32;0.60;99.90
35678;DHT22;21791;42.828;74.582;2023-02-18T13:13:07;0.70;99.90
35678;DHT22;21791;42.828;74.582;2023-02-18T13:19:02;1.50;99.90
35678;DHT22;21791;42.828;74.582;2023-02-18T13:21:11;1.80;99.90
35678;DHT22;21791;42.828;74.582;2023-02-18T13:24:01;1.80;99.90
35678;DHT22;21791;42.828;74.582;2023-02-18T13:26:34;1.90;99.90
35678;DHT22;21791;42.828;74.582;2023-02-18T13:32:15;2.00;99.90
35678;DHT22;21791;42.828;74.582;2023-02-18T13:34:53;1.70;99.90
35678;DHT22;21791;42.828;74.582;2023-02-18T13:40:00;1.90;99.90
35678;DHT22;21791;42.828;74.582;2023-02-18T13:42:35;0.80;99.90
35678;DHT22;21791;42.828;74.582;2023-02-18T13:45:04;1.80;99.90
35678;DHT22;21791;42.828;74.582;2023-02-18T13:47:39;1.80;99.90
35678;DHT22;21791;42.828;74.582;2023-02-18T13:52:42;1.10;99.90
35678;DHT22;21791;42.828;74.582;2023-02-18T13:55:20;2.00;99.90
35678;DHT22;21791;42.828;74.582;2023-02-18T13:57:49;0.90;99.90
35678;DHT22;21791;42.828;74.582;2023-02-18T14:00:25;1.20;99.90
35678;DHT22;21791;42.828;74.582;2023-02-18T14:03:18;1.90;99.90
35678;DHT22;21791;42.828;74.582;2023-02-18T14:05:45;1.60;99.90
35678;DHT22;21791;42.828;74.582;2023-02-18T14:08:14;0.90;99.90
35678;DHT22;21791;42.828;74.582;2023-02-18T14:13:55;1.80;99.90
35678;DHT22;21791;42.828;74.582;2023-02-18T14:17:12;0.60;99.90
35678;DHT22;21791;42.828;74.582;2023-02-18T14:19:39;1.10;99.90
35678;DHT22;21791;42.828;74.582;2023-02-18T14:27:52;1.90;99.90
35678;DHT22;21791;42.828;74.582;2023-02-18T14:30:28;1.50;99.90
35678;DHT22;21791;42.828;74.582;2023-02-18T14:33:00;1.30;99.90
35678;DHT22;21791;42.828;74.582;2023-02-18T14:41:33;1.80;99.90
35678;DHT22;21791;42.828;74.582;2023-02-18T14:46:51;1.70;99.90
35678;DHT22;21791;42.828;74.582;2023-02-18T14:52:22;1.90;99.90
35678;DHT22;21791;42.828;74.582;2023-02-18T14:54:52;1.80;99.90
35678;DHT22;21791;42.828;74.582;2023-02-18T14:57:32;1.00;99.90
35678;DHT22;21791;42.828;74.582;2023-02-18T15:00:00;1.90;99.90
35678;DHT22;21791;42.828;74.582;2023-02-18T15:02:28;1.50;99.90
35678;DHT22;21791;42.828;74.582;2023-02-18T15:05:19;1.80;99.90
35678;DHT22;21791;42.828;74.582;2023-02-18T15:08:00;0.70;99.90
35678;DHT22;21791;42.828;74.582;2023-02-18T15:10:38;1.00;99.90
35678;DHT22;21791;42.828;74.582;2023-02-18T15:13:19;1.70;99.90
35678;DHT22;21791;42.828;74.582;2023-02-18T15:15:50;0.70;99.90
35678;DHT22;21791;42.828;74.582;2023-02-18T15:20:56;1.90;99.90
35678;DHT22;21791;42.828;74.582;2023-02-18T15:23:25;1.70;99.90
35678;DHT22;21791;42.828;74.582;2023-02-18T15:25:52;1.00;99.90
35678;DHT22;21791;42.828;74.582;2023-02-18T15:28:27;1.10;99.90
35678;DHT22;21791;42.828;74.582;2023-02-18T15:31:02;1.90;99.90
35678;DHT22;21791;42.828;74.582;2023-02-18T15:33:29;1.80;99.90
35678;DHT22;21791;42.828;74.582;2023-02-18T15:36:06;1.00;99.90
35678;DHT22;21791;42.828;74.582;2023-02-18T15:38:37;1.60;99.90
35678;DHT22;21791;42.828;74.582;2023-02-18T15:41:15;1.90;99.90
35678;DHT22;21791;42.828;74.582;2023-02-18T15:43:54;1.80;99.90
35678;DHT22;21791;42.828;74.582;2023-02-18T15:46:23;0.80;99.90
35678;DHT22;21791;42.828;74.582;2023-02-18T15:48:52;1.40;99.90
35678;DHT22;21791;42.828;74.582;2023-02-18T15:51:26;0.90;99.90
35678;DHT22;21791;42.828;74.582;2023-02-18T15:53:55;0.60;99.90
35678;DHT22;21791;42.828;74.582;2023-02-18T15:56:33;1.60;99.90
35678;DHT22;21791;42.828;74.582;2023-02-18T15:59:25;1.60;99.90
35678;DHT22;21791;42.828;74.582;2023-02-18T16:01:56;1.60;99.90
35678;DHT22;21791;42.828;74.582;2023-02-18T16:04:27;1.20;99.90
35678;DHT22;21791;42.828;74.582;2023-02-18T16:06:55;0.40;99.90
35678;DHT22;21791;42.828;74.582;2023-02-18T16:09:34;0.40;99.90
35678;DHT22;21791;42.828;74.582;2023-02-18T16:12:03;0.40;99.90
35678;DHT22;21791;42.828;74.582;2023-02-18T16:14:48;1.00;99.90
35678;DHT22;21791;42.828;74.582;2023-02-18T16:17:22;0.80;99.90
35678;DHT22;21791;42.828;74.582;2023-02-18T16:19:54;0.70;99.90
35678;DHT22;21791;42.828;74.582;2023-02-18T16:25:19;1.20;99.90
35678;DHT22;21791;42.828;74.582;2023-02-18T16:27:54;0.60;99.90
35678;DHT22;21791;42.828;74.582;2023-02-18T16:30:31;1.50;99.90
35678;DHT22;21791;42.828;74.582;2023-02-18T16:32:58;1.60;99.90
35678;DHT22;21791;42.828;74.582;2023-02-18T16:35:27;0.80;99.90
35678;DHT22;21791;42.828;74.582;2023-02-18T16:37:55;1.00;99.90
35678;DHT22;21791;42.828;74.582;2023-02-18T16:43:01;0.50;99.90
35678;DHT22;21791;42.828;74.582;2023-02-18T16:45:36;1.50;99.90
35678;DHT22;21791;42.828;74.582;2023-02-18T16:48:04;1.00;99.90
35678;DHT22;21791;42.828;74.582;2023-02-18T16:50:32;0.90;99.90
35678;DHT22;21791;42.828;74.582;2023-02-18T16:52:59;1.60;99.90
35678;DHT22;21791;42.828;74.582;2023-02-18T16:55:32;0.40;99.90
35678;DHT22;21791;42.828;74.582;2023-02-18T16:57:59;0.40;99.90
35678;DHT22;21791;42.828;74.582;2023-02-18T17:00:25;1.60;99.90
35678;DHT22;21791;42.828;74.582;2023-02-18T17:02:55;0.50;99.90
35678;DHT22;21791;42.828;74.582;2023-02-18T17:05:25;1.60;99.90
35678;DHT22;21791;42.828;74.582;2023-02-18T17:07:53;1.70;99.90
35678;DHT22;21791;42.828;74.582;2023-02-18T17:10:20;0.50;99.90
35678;DHT22;21791;42.828;74.582;2023-02-18T17:12:47;1.00;99.90
35678;DHT22;21791;42.828;74.582;2023-02-18T17:15:34;0.80;99.90
35678;DHT22;21791;42.828;74.582;2023-02-18T17:18:01;0.70;99.90
35678;DHT22;21791;42.828;74.582;2023-02-18T17:20:31;0.60;99.90
35678;DHT22;21791;42.828;74.582;2023-02-18T17:22:57;1.50;99.90
35678;DHT22;21791;42.828;74.582;2023-02-18T17:25:34;1.60;99.90
35678;DHT22;21791;42.828;74.582;2023-02-18T17:28:01;1.20;99.90
35678;DHT22;21791;42.828;74.582;2023-02-18T17:30:29;1.10;99.90
35678;DHT22;21791;42.828;74.582;2023-02-18T17:32:58;0.60;99.90
35678;DHT22;21791;42.828;74.582;2023-02-18T17:35:25;0.60;99.90
35678;DHT22;21791;42.828;74.582;2023-02-18T17:37:52;1.30;99.90
35678;DHT22;21791;42.828;74.582;2023-02-18T17:40:21;0.60;99.90
35678;DHT22;21791;42.828;74.582;2023-02-18T17:42:48;1.40;99.90
35678;DHT22;21791;42.828;74.582;2023-02-18T17:45:26;1.20;99.90
35678;DHT22;21791;42.828;74.582;2023-02-18T17:47:58;0.50;99.90
35678;DHT22;21791;42.828;74.582;2023-02-18T17:50:25;0.90;99.90
35678;DHT22;21791;42.828;74.582;2023-02-18T17:52:52;0.50;99.90
35678;DHT22;21791;42.828;74.582;2023-02-18T17:55:30;0.30;99.90
35678;DHT22;21791;42.828;74.582;2023-02-18T17:57:57;0.70;99.90
35678;DHT22;21791;42.828;74.582;2023-02-18T18:00:28;0.70;99.90
35678;DHT22;21791;42.828;74.582;2023-02-18T18:02:55;1.50;99.90
35678;DHT22;21791;42.828;74.582;2023-02-18T18:05:34;0.80;99.90
35678;DHT22;21791;42.828;74.582;2023-02-18T18:08:02;1.20;99.90
35678;DHT22;21791;42.828;74.582;2023-02-18T18:10:33;1.50;99.90